sensor_id;sensor_type;location;lat;lon;timestamp;P1;durP1;ratioP1;P2;durP2;ratioP2
75148;SDS011;63724;47.470;19.166;2023-06-14T00:01:23;5.77;;;2.90;;
75148;SDS011;63724;47.470;19.166;2023-06-14T00:04:25;4.27;;;3.10;;
75148;SDS011;63724;47.470;19.166;2023-06-14T00:07:35;4.95;;;3.20;;
75148;SDS011;63724;47.470;19.166;2023-06-14T00:10:38;8.38;;;3.40;;
75148;SDS011;63724;47.470;19.166;2023-06-14T00:13:42;7.13;;;3.25;;
75148;SDS011;63724;47.470;19.166;2023-06-14T00:16:45;5.07;;;3.43;;
75148;SDS011;63724;47.470;19.166;2023-06-14T00:19:48;4.40;;;3.13;;
75148;SDS011;63724;47.470;19.166;2023-06-14T00:22:51;6.25;;;3.70;;
75148;SDS011;63724;47.470;19.166;2023-06-14T00:25:54;4.50;;;3.17;;
75148;SDS011;63724;47.470;19.166;2023-06-14T00:28:56;5.75;;;3.72;;
75148;SDS011;63724;47.470;19.166;2023-06-14T00:32:01;6.13;;;3.70;;
75148;SDS011;63724;47.470;19.166;2023-06-14T00:35:04;6.27;;;3.43;;
75148;SDS011;63724;47.470;19.166;2023-06-14T00:38:07;4.85;;;3.45;;
75148;SDS011;63724;47.470;19.166;2023-06-14T00:41:09;5.57;;;3.53;;
75148;SDS011;63724;47.470;19.166;2023-06-14T00:44:12;4.95;;;3.55;;
75148;SDS011;63724;47.470;19.166;2023-06-14T00:47:17;6.20;;;4.17;;
75148;SDS011;63724;47.470;19.166;2023-06-14T00:50:20;5.27;;;3.57;;
75148;SDS011;63724;47.470;19.166;2023-06-14T00:53:23;5.28;;;3.80;;
75148;SDS011;63724;47.470;19.166;2023-06-14T00:56:27;7.07;;;3.70;;
75148;SDS011;63724;47.470;19.166;2023-06-14T00:59:29;6.43;;;3.42;;
75148;SDS011;63724;47.470;19.166;2023-06-14T01:02:32;6.90;;;3.63;;
75148;SDS011;63724;47.470;19.166;2023-06-14T01:05:35;6.60;;;4.30;;
75148;SDS011;63724;47.470;19.166;2023-06-14T01:08:42;6.85;;;4.00;;
75148;SDS011;63724;47.470;19.166;2023-06-14T01:11:59;8.23;;;4.57;;
75148;SDS011;63724;47.470;19.166;2023-06-14T01:15:04;7.57;;;4.38;;
75148;SDS011;63724;47.470;19.166;2023-06-14T01:18:07;6.73;;;4.33;;
75148;SDS011;63724;47.470;19.166;2023-06-14T01:21:20;6.13;;;4.10;;
75148;SDS011;63724;47.470;19.166;2023-06-14T01:24:26;9.70;;;4.88;;
75148;SDS011;63724;47.470;19.166;2023-06-14T01:27:31;9.57;;;4.53;;
75148;SDS011;63724;47.470;19.166;2023-06-14T01:30:34;8.98;;;5.43;;
75148;SDS011;63724;47.470;19.166;2023-06-14T01:33:37;9.63;;;5.03;;
75148;SDS011;63724;47.470;19.166;2023-06-14T01:36:40;7.33;;;4.90;;
75148;SDS011;63724;47.470;19.166;2023-06-14T01:39:44;10.55;;;5.10;;
75148;SDS011;63724;47.470;19.166;2023-06-14T01:42:47;8.07;;;5.38;;
75148;SDS011;63724;47.470;19.166;2023-06-14T01:45:51;10.43;;;4.88;;
75148;SDS011;63724;47.470;19.166;2023-06-14T01:48:55;8.80;;;5.20;;
75148;SDS011;63724;47.470;19.166;2023-06-14T01:51:58;8.33;;;5.20;;
75148;SDS011;63724;47.470;19.166;2023-06-14T01:55:01;8.57;;;5.07;;
75148;SDS011;63724;47.470;19.166;2023-06-14T01:58:04;9.02;;;4.82;;
75148;SDS011;63724;47.470;19.166;2023-06-14T02:01:07;14.30;;;5.35;;
75148;SDS011;63724;47.470;19.166;2023-06-14T02:04:10;12.77;;;5.30;;
75148;SDS011;63724;47.470;19.166;2023-06-14T02:07:13;10.03;;;4.97;;
75148;SDS011;63724;47.470;19.166;2023-06-14T02:10:16;9.05;;;5.25;;
75148;SDS011;63724;47.470;19.166;2023-06-14T02:13:19;8.07;;;5.35;;
75148;SDS011;63724;47.470;19.166;2023-06-14T02:16:22;10.23;;;6.07;;
75148;SDS011;63724;47.470;19.166;2023-06-14T02:19:24;9.00;;;5.53;;
75148;SDS011;63724;47.470;19.166;2023-06-14T02:22:27;9.60;;;5.83;;
75148;SDS011;63724;47.470;19.166;2023-06-14T02:25:29;9.85;;;5.72;;
75148;SDS011;63724;47.470;19.166;2023-06-14T02:28:32;17.45;;;6.22;;
75148;SDS011;63724;47.470;19.166;2023-06-14T02:31:35;11.93;;;6.75;;
75148;SDS011;63724;47.470;19.166;2023-06-14T02:34:38;11.80;;;6.37;;
75148;SDS011;63724;47.470;19.166;2023-06-14T02:37:43;13.70;;;6.33;;
75148;SDS011;63724;47.470;19.166;2023-06-14T02:40:45;10.82;;;6.40;;
75148;SDS011;63724;47.470;19.166;2023-06-14T02:43:48;10.82;;;5.90;;
75148;SDS011;63724;47.470;19.166;2023-06-14T02:46:51;11.57;;;6.72;;
75148;SDS011;63724;47.470;19.166;2023-06-14T02:49:53;12.60;;;6.87;;
75148;SDS011;63724;47.470;19.166;2023-06-14T02:52:55;12.40;;;6.93;;
75148;SDS011;63724;47.470;19.166;2023-06-14T02:55:59;9.15;;;5.90;;
75148;SDS011;63724;47.470;19.166;2023-06-14T02:59:02;11.52;;;6.28;;
75148;SDS011;63724;47.470;19.166;2023-06-14T03:02:05;11.40;;;7.25;;
75148;SDS011;63724;47.470;19.166;2023-06-14T03:05:09;10.33;;;6.80;;
75148;SDS011;63724;47.470;19.166;2023-06-14T03:08:12;11.90;;;6.73;;
75148;SDS011;63724;47.470;19.166;2023-06-14T03:11:19;10.70;;;6.95;;
75148;SDS011;63724;47.470;19.166;2023-06-14T03:14:23;10.25;;;6.80;;
75148;SDS011;63724;47.470;19.166;2023-06-14T03:17:25;11.75;;;6.40;;
75148;SDS011;63724;47.470;19.166;2023-06-14T03:20:32;10.13;;;6.13;;
75148;SDS011;63724;47.470;19.166;2023-06-14T03:23:35;13.57;;;6.57;;
75148;SDS011;63724;47.470;19.166;2023-06-14T03:26:38;11.18;;;6.05;;
75148;SDS011;63724;47.470;19.166;2023-06-14T03:29:40;10.63;;;6.47;;
75148;SDS011;63724;47.470;19.166;2023-06-14T03:32:43;10.40;;;6.40;;
75148;SDS011;63724;47.470;19.166;2023-06-14T03:35:46;12.23;;;6.30;;
75148;SDS011;63724;47.470;19.166;2023-06-14T03:38:49;10.63;;;6.33;;
75148;SDS011;63724;47.470;19.166;2023-06-14T03:41:52;10.35;;;6.25;;
75148;SDS011;63724;47.470;19.166;2023-06-14T03:44:54;11.00;;;6.38;;
75148;SDS011;63724;47.470;19.166;2023-06-14T03:47:58;11.30;;;6.00;;
75148;SDS011;63724;47.470;19.166;2023-06-14T03:51:04;8.47;;;5.83;;
75148;SDS011;63724;47.470;19.166;2023-06-14T03:54:07;11.97;;;6.87;;
75148;SDS011;63724;47.470;19.166;2023-06-14T03:57:13;11.77;;;6.07;;
75148;SDS011;63724;47.470;19.166;2023-06-14T04:00:16;12.93;;;6.13;;
75148;SDS011;63724;47.470;19.166;2023-06-14T04:03:20;19.33;;;10.68;;
75148;SDS011;63724;47.470;19.166;2023-06-14T04:06:33;14.57;;;8.30;;
75148;SDS011;63724;47.470;19.166;2023-06-14T04:09:39;13.93;;;8.80;;
75148;SDS011;63724;47.470;19.166;2023-06-14T04:12:42;13.10;;;7.75;;
75148;SDS011;63724;47.470;19.166;2023-06-14T04:15:45;12.82;;;7.00;;
75148;SDS011;63724;47.470;19.166;2023-06-14T04:18:54;11.50;;;5.88;;
75148;SDS011;63724;47.470;19.166;2023-06-14T04:21:58;10.70;;;5.50;;
75148;SDS011;63724;47.470;19.166;2023-06-14T04:25:05;9.90;;;5.70;;
75148;SDS011;63724;47.470;19.166;2023-06-14T04:28:08;9.52;;;5.53;;
75148;SDS011;63724;47.470;19.166;2023-06-14T04:31:11;11.13;;;6.05;;
75148;SDS011;63724;47.470;19.166;2023-06-14T04:34:13;9.77;;;5.28;;
75148;SDS011;63724;47.470;19.166;2023-06-14T04:37:24;10.83;;;6.40;;
75148;SDS011;63724;47.470;19.166;2023-06-14T04:40:30;13.23;;;5.30;;
75148;SDS011;63724;47.470;19.166;2023-06-14T04:43:36;10.07;;;6.05;;
75148;SDS011;63724;47.470;19.166;2023-06-14T04:46:41;10.40;;;5.57;;
75148;SDS011;63724;47.470;19.166;2023-06-14T04:49:54;9.02;;;5.53;;
75148;SDS011;63724;47.470;19.166;2023-06-14T04:52:56;9.37;;;4.93;;
75148;SDS011;63724;47.470;19.166;2023-06-14T04:56:02;9.77;;;5.43;;
75148;SDS011;63724;47.470;19.166;2023-06-14T04:59:08;7.38;;;5.15;;
75148;SDS011;63724;47.470;19.166;2023-06-14T05:02:11;8.23;;;4.88;;
75148;SDS011;63724;47.470;19.166;2023-06-14T05:05:14;8.85;;;5.63;;
75148;SDS011;63724;47.470;19.166;2023-06-14T05:08:18;8.93;;;5.83;;
75148;SDS011;63724;47.470;19.166;2023-06-14T05:11:22;10.20;;;5.70;;
75148;SDS011;63724;47.470;19.166;2023-06-14T05:14:28;8.75;;;5.28;;
75148;SDS011;63724;47.470;19.166;2023-06-14T05:17:32;9.73;;;5.50;;
75148;SDS011;63724;47.470;19.166;2023-06-14T05:20:35;9.23;;;4.97;;
75148;SDS011;63724;47.470;19.166;2023-06-14T05:23:39;9.47;;;5.50;;
75148;SDS011;63724;47.470;19.166;2023-06-14T05:26:41;11.50;;;5.70;;
75148;SDS011;63724;47.470;19.166;2023-06-14T05:29:44;11.10;;;5.50;;
75148;SDS011;63724;47.470;19.166;2023-06-14T05:32:46;10.80;;;6.68;;
75148;SDS011;63724;47.470;19.166;2023-06-14T05:35:50;11.88;;;5.32;;
75148;SDS011;63724;47.470;19.166;2023-06-14T05:38:53;8.20;;;5.73;;
75148;SDS011;63724;47.470;19.166;2023-06-14T05:42:01;10.53;;;5.50;;
75148;SDS011;63724;47.470;19.166;2023-06-14T05:45:03;7.13;;;4.93;;
75148;SDS011;63724;47.470;19.166;2023-06-14T05:48:07;12.77;;;5.68;;
75148;SDS011;63724;47.470;19.166;2023-06-14T05:51:10;9.13;;;5.13;;
75148;SDS011;63724;47.470;19.166;2023-06-14T05:54:13;9.53;;;5.50;;
75148;SDS011;63724;47.470;19.166;2023-06-14T05:57:16;7.93;;;4.80;;
75148;SDS011;63724;47.470;19.166;2023-06-14T06:00:18;17.02;;;5.18;;
75148;SDS011;63724;47.470;19.166;2023-06-14T06:03:22;10.77;;;5.38;;
75148;SDS011;63724;47.470;19.166;2023-06-14T06:06:26;12.15;;;5.22;;
75148;SDS011;63724;47.470;19.166;2023-06-14T06:09:28;7.87;;;4.90;;
75148;SDS011;63724;47.470;19.166;2023-06-14T06:12:31;8.70;;;4.77;;
75148;SDS011;63724;47.470;19.166;2023-06-14T06:15:35;15.63;;;5.03;;
75148;SDS011;63724;47.470;19.166;2023-06-14T06:18:37;6.80;;;4.32;;
75148;SDS011;63724;47.470;19.166;2023-06-14T06:21:40;10.38;;;4.45;;
75148;SDS011;63724;47.470;19.166;2023-06-14T06:24:43;9.53;;;4.70;;
75148;SDS011;63724;47.470;19.166;2023-06-14T06:27:47;13.70;;;4.53;;
75148;SDS011;63724;47.470;19.166;2023-06-14T06:30:49;6.00;;;4.25;;
75148;SDS011;63724;47.470;19.166;2023-06-14T06:33:53;10.40;;;4.20;;
75148;SDS011;63724;47.470;19.166;2023-06-14T06:36:58;7.00;;;4.53;;
75148;SDS011;63724;47.470;19.166;2023-06-14T06:40:00;8.13;;;4.37;;
75148;SDS011;63724;47.470;19.166;2023-06-14T06:43:03;6.17;;;4.30;;
75148;SDS011;63724;47.470;19.166;2023-06-14T06:46:14;9.00;;;3.95;;
75148;SDS011;63724;47.470;19.166;2023-06-14T06:49:16;7.50;;;3.65;;
75148;SDS011;63724;47.470;19.166;2023-06-14T06:52:18;5.45;;;4.13;;
75148;SDS011;63724;47.470;19.166;2023-06-14T06:55:21;14.17;;;4.03;;
75148;SDS011;63724;47.470;19.166;2023-06-14T06:58:23;6.17;;;3.47;;
75148;SDS011;63724;47.470;19.166;2023-06-14T07:01:26;7.90;;;3.85;;
75148;SDS011;63724;47.470;19.166;2023-06-14T07:04:31;6.50;;;3.42;;
75148;SDS011;63724;47.470;19.166;2023-06-14T07:07:33;5.07;;;3.55;;
75148;SDS011;63724;47.470;19.166;2023-06-14T07:10:36;5.73;;;3.60;;
75148;SDS011;63724;47.470;19.166;2023-06-14T07:13:39;12.83;;;3.70;;
75148;SDS011;63724;47.470;19.166;2023-06-14T07:16:42;5.07;;;3.33;;
75148;SDS011;63724;47.470;19.166;2023-06-14T07:19:45;7.85;;;3.55;;
75148;SDS011;63724;47.470;19.166;2023-06-14T07:22:49;5.75;;;3.42;;
75148;SDS011;63724;47.470;19.166;2023-06-14T07:25:52;10.30;;;3.93;;
75148;SDS011;63724;47.470;19.166;2023-06-14T07:28:54;7.50;;;3.63;;
75148;SDS011;63724;47.470;19.166;2023-06-14T07:31:57;5.75;;;3.38;;
75148;SDS011;63724;47.470;19.166;2023-06-14T07:34:59;7.40;;;3.63;;
75148;SDS011;63724;47.470;19.166;2023-06-14T07:38:03;10.40;;;4.10;;
75148;SDS011;63724;47.470;19.166;2023-06-14T07:41:05;7.23;;;3.40;;
75148;SDS011;63724;47.470;19.166;2023-06-14T07:44:07;7.87;;;3.20;;
75148;SDS011;63724;47.470;19.166;2023-06-14T07:47:10;8.23;;;3.80;;
75148;SDS011;63724;47.470;19.166;2023-06-14T07:50:12;5.72;;;3.45;;
75148;SDS011;63724;47.470;19.166;2023-06-14T07:53:15;5.57;;;3.08;;
75148;SDS011;63724;47.470;19.166;2023-06-14T07:56:18;7.53;;;3.67;;
75148;SDS011;63724;47.470;19.166;2023-06-14T07:59:20;8.90;;;3.77;;
75148;SDS011;63724;47.470;19.166;2023-06-14T08:02:23;5.82;;;3.83;;
75148;SDS011;63724;47.470;19.166;2023-06-14T08:05:27;7.10;;;4.07;;
75148;SDS011;63724;47.470;19.166;2023-06-14T08:08:30;8.73;;;4.00;;
75148;SDS011;63724;47.470;19.166;2023-06-14T08:11:33;6.23;;;3.77;;
75148;SDS011;63724;47.470;19.166;2023-06-14T08:14:42;5.17;;;3.20;;
75148;SDS011;63724;47.470;19.166;2023-06-14T08:17:44;5.32;;;3.45;;
75148;SDS011;63724;47.470;19.166;2023-06-14T08:20:47;6.55;;;3.60;;
75148;SDS011;63724;47.470;19.166;2023-06-14T08:23:50;6.45;;;3.72;;
75148;SDS011;63724;47.470;19.166;2023-06-14T08:26:55;5.53;;;3.23;;
75148;SDS011;63724;47.470;19.166;2023-06-14T08:29:58;6.43;;;3.50;;
75148;SDS011;63724;47.470;19.166;2023-06-14T08:33:00;6.82;;;3.63;;
75148;SDS011;63724;47.470;19.166;2023-06-14T08:36:16;5.03;;;3.42;;
75148;SDS011;63724;47.470;19.166;2023-06-14T08:39:18;5.82;;;3.13;;
75148;SDS011;63724;47.470;19.166;2023-06-14T08:42:21;7.87;;;3.13;;
75148;SDS011;63724;47.470;19.166;2023-06-14T08:45:33;4.60;;;3.37;;
75148;SDS011;63724;47.470;19.166;2023-06-14T08:48:36;7.78;;;3.65;;
75148;SDS011;63724;47.470;19.166;2023-06-14T08:51:39;7.75;;;4.25;;
75148;SDS011;63724;47.470;19.166;2023-06-14T08:54:42;8.38;;;3.58;;
75148;SDS011;63724;47.470;19.166;2023-06-14T08:57:46;6.77;;;4.00;;
75148;SDS011;63724;47.470;19.166;2023-06-14T09:00:50;5.83;;;3.33;;
75148;SDS011;63724;47.470;19.166;2023-06-14T09:03:54;7.18;;;4.05;;
75148;SDS011;63724;47.470;19.166;2023-06-14T09:06:59;14.73;;;4.30;;
75148;SDS011;63724;47.470;19.166;2023-06-14T09:10:09;20.90;;;5.63;;
75148;SDS011;63724;47.470;19.166;2023-06-14T09:13:13;5.80;;;3.50;;
75148;SDS011;63724;47.470;19.166;2023-06-14T09:16:16;8.83;;;3.10;;
75148;SDS011;63724;47.470;19.166;2023-06-14T09:19:22;4.13;;;2.95;;
75148;SDS011;63724;47.470;19.166;2023-06-14T09:22:28;6.75;;;3.50;;
75148;SDS011;63724;47.470;19.166;2023-06-14T09:25:31;8.77;;;2.80;;
75148;SDS011;63724;47.470;19.166;2023-06-14T09:28:41;6.53;;;3.00;;
75148;SDS011;63724;47.470;19.166;2023-06-14T09:31:46;8.67;;;3.17;;
75148;SDS011;63724;47.470;19.166;2023-06-14T09:34:49;6.18;;;2.70;;
75148;SDS011;63724;47.470;19.166;2023-06-14T09:37:53;5.53;;;2.97;;
75148;SDS011;63724;47.470;19.166;2023-06-14T09:40:57;3.95;;;2.47;;
75148;SDS011;63724;47.470;19.166;2023-06-14T09:44:01;7.90;;;3.23;;
75148;SDS011;63724;47.470;19.166;2023-06-14T09:47:10;5.87;;;3.10;;
75148;SDS011;63724;47.470;19.166;2023-06-14T09:50:13;10.30;;;2.88;;
75148;SDS011;63724;47.470;19.166;2023-06-14T09:53:15;5.28;;;2.90;;
75148;SDS011;63724;47.470;19.166;2023-06-14T09:56:28;7.18;;;3.20;;
75148;SDS011;63724;47.470;19.166;2023-06-14T09:59:31;3.73;;;2.40;;
75148;SDS011;63724;47.470;19.166;2023-06-14T10:02:35;9.37;;;2.80;;
75148;SDS011;63724;47.470;19.166;2023-06-14T10:05:41;5.95;;;3.10;;
75148;SDS011;63724;47.470;19.166;2023-06-14T10:08:45;9.43;;;2.30;;
75148;SDS011;63724;47.470;19.166;2023-06-14T10:11:49;4.57;;;2.42;;
75148;SDS011;63724;47.470;19.166;2023-06-14T10:14:52;4.47;;;2.23;;
75148;SDS011;63724;47.470;19.166;2023-06-14T10:18:01;3.57;;;2.37;;
75148;SDS011;63724;47.470;19.166;2023-06-14T10:21:31;5.65;;;1.95;;
75148;SDS011;63724;47.470;19.166;2023-06-14T10:24:39;5.47;;;2.00;;
75148;SDS011;63724;47.470;19.166;2023-06-14T10:27:44;7.00;;;2.60;;
75148;SDS011;63724;47.470;19.166;2023-06-14T10:31:23;8.50;;;3.17;;
75148;SDS011;63724;47.470;19.166;2023-06-14T10:34:28;6.93;;;2.10;;
75148;SDS011;63724;47.470;19.166;2023-06-14T10:37:31;4.88;;;2.13;;
75148;SDS011;63724;47.470;19.166;2023-06-14T10:40:34;2.42;;;1.95;;
75148;SDS011;63724;47.470;19.166;2023-06-14T10:43:37;4.38;;;1.95;;
75148;SDS011;63724;47.470;19.166;2023-06-14T10:46:39;4.73;;;2.23;;
75148;SDS011;63724;47.470;19.166;2023-06-14T10:49:50;2.97;;;2.00;;
75148;SDS011;63724;47.470;19.166;2023-06-14T10:52:54;4.35;;;1.70;;
75148;SDS011;63724;47.470;19.166;2023-06-14T10:55:58;3.72;;;2.05;;
75148;SDS011;63724;47.470;19.166;2023-06-14T10:59:08;5.18;;;2.10;;
75148;SDS011;63724;47.470;19.166;2023-06-14T11:02:20;7.67;;;2.17;;
75148;SDS011;63724;47.470;19.166;2023-06-14T11:05:48;15.40;;;3.37;;
75148;SDS011;63724;47.470;19.166;2023-06-14T11:12:47;11.48;;;2.65;;
75148;SDS011;63724;47.470;19.166;2023-06-14T11:16:11;6.88;;;2.20;;
75148;SDS011;63724;47.470;19.166;2023-06-14T11:19:15;5.00;;;2.30;;
75148;SDS011;63724;47.470;19.166;2023-06-14T11:22:19;3.73;;;2.23;;
75148;SDS011;63724;47.470;19.166;2023-06-14T11:25:24;6.10;;;2.50;;
75148;SDS011;63724;47.470;19.166;2023-06-14T11:28:39;4.78;;;2.35;;
75148;SDS011;63724;47.470;19.166;2023-06-14T11:31:43;4.30;;;2.17;;
75148;SDS011;63724;47.470;19.166;2023-06-14T11:34:47;4.70;;;2.57;;
75148;SDS011;63724;47.470;19.166;2023-06-14T11:37:56;5.07;;;2.20;;
75148;SDS011;63724;47.470;19.166;2023-06-14T11:40:59;6.53;;;2.35;;
75148;SDS011;63724;47.470;19.166;2023-06-14T11:44:02;5.28;;;2.42;;
75148;SDS011;63724;47.470;19.166;2023-06-14T11:47:05;7.75;;;2.70;;
75148;SDS011;63724;47.470;19.166;2023-06-14T11:50:09;7.13;;;2.97;;
75148;SDS011;63724;47.470;19.166;2023-06-14T11:53:11;6.47;;;2.77;;
75148;SDS011;63724;47.470;19.166;2023-06-14T11:56:14;7.38;;;3.03;;
75148;SDS011;63724;47.470;19.166;2023-06-14T11:59:20;7.18;;;2.65;;
75148;SDS011;63724;47.470;19.166;2023-06-14T12:02:22;6.18;;;2.45;;
75148;SDS011;63724;47.470;19.166;2023-06-14T12:05:26;13.23;;;2.83;;
75148;SDS011;63724;47.470;19.166;2023-06-14T12:08:33;7.27;;;2.53;;
75148;SDS011;63724;47.470;19.166;2023-06-14T12:11:41;5.20;;;2.55;;
75148;SDS011;63724;47.470;19.166;2023-06-14T12:14:43;4.03;;;2.33;;
75148;SDS011;63724;47.470;19.166;2023-06-14T12:17:46;3.70;;;2.13;;
75148;SDS011;63724;47.470;19.166;2023-06-14T12:20:49;5.23;;;2.70;;
75148;SDS011;63724;47.470;19.166;2023-06-14T12:23:52;3.63;;;2.33;;
75148;SDS011;63724;47.470;19.166;2023-06-14T12:26:57;7.07;;;2.35;;
75148;SDS011;63724;47.470;19.166;2023-06-14T12:30:06;2.95;;;2.33;;
75148;SDS011;63724;47.470;19.166;2023-06-14T12:33:10;6.60;;;2.55;;
75148;SDS011;63724;47.470;19.166;2023-06-14T12:36:13;7.03;;;2.30;;
75148;SDS011;63724;47.470;19.166;2023-06-14T12:39:17;3.13;;;2.30;;
75148;SDS011;63724;47.470;19.166;2023-06-14T12:42:19;9.48;;;3.00;;
75148;SDS011;63724;47.470;19.166;2023-06-14T12:45:22;4.82;;;2.80;;
75148;SDS011;63724;47.470;19.166;2023-06-14T12:48:25;5.47;;;2.47;;
75148;SDS011;63724;47.470;19.166;2023-06-14T12:51:29;5.27;;;2.50;;
75148;SDS011;63724;47.470;19.166;2023-06-14T12:54:31;4.20;;;2.60;;
75148;SDS011;63724;47.470;19.166;2023-06-14T12:57:42;7.53;;;2.88;;
75148;SDS011;63724;47.470;19.166;2023-06-14T13:00:45;6.65;;;2.80;;
75148;SDS011;63724;47.470;19.166;2023-06-14T13:03:48;4.18;;;2.80;;
75148;SDS011;63724;47.470;19.166;2023-06-14T13:06:51;8.10;;;2.40;;
75148;SDS011;63724;47.470;19.166;2023-06-14T13:09:54;3.93;;;2.60;;
75148;SDS011;63724;47.470;19.166;2023-06-14T13:12:56;5.78;;;3.05;;
75148;SDS011;63724;47.470;19.166;2023-06-14T13:16:00;5.88;;;2.28;;
75148;SDS011;63724;47.470;19.166;2023-06-14T13:19:03;4.03;;;2.80;;
75148;SDS011;63724;47.470;19.166;2023-06-14T13:22:05;3.47;;;2.63;;
75148;SDS011;63724;47.470;19.166;2023-06-14T13:25:12;6.77;;;2.60;;
75148;SDS011;63724;47.470;19.166;2023-06-14T13:28:14;5.80;;;2.45;;
75148;SDS011;63724;47.470;19.166;2023-06-14T13:31:17;5.57;;;2.60;;
75148;SDS011;63724;47.470;19.166;2023-06-14T13:34:19;5.80;;;2.50;;
75148;SDS011;63724;47.470;19.166;2023-06-14T13:37:22;3.27;;;2.40;;
75148;SDS011;63724;47.470;19.166;2023-06-14T13:40:24;7.13;;;2.30;;
75148;SDS011;63724;47.470;19.166;2023-06-14T13:43:27;4.40;;;2.20;;
75148;SDS011;63724;47.470;19.166;2023-06-14T13:46:31;3.42;;;2.38;;
75148;SDS011;63724;47.470;19.166;2023-06-14T13:49:33;9.07;;;2.60;;
75148;SDS011;63724;47.470;19.166;2023-06-14T13:52:37;3.77;;;2.40;;
75148;SDS011;63724;47.470;19.166;2023-06-14T13:55:39;4.33;;;2.07;;
75148;SDS011;63724;47.470;19.166;2023-06-14T13:58:42;7.38;;;2.67;;
75148;SDS011;63724;47.470;19.166;2023-06-14T14:06:49;4.82;;;2.00;;
75148;SDS011;63724;47.470;19.166;2023-06-14T14:09:56;8.47;;;2.43;;
75148;SDS011;63724;47.470;19.166;2023-06-14T14:12:59;4.20;;;2.43;;
75148;SDS011;63724;47.470;19.166;2023-06-14T14:16:02;4.93;;;2.47;;
75148;SDS011;63724;47.470;19.166;2023-06-14T14:19:05;5.45;;;2.33;;
75148;SDS011;63724;47.470;19.166;2023-06-14T14:22:08;6.97;;;2.72;;
75148;SDS011;63724;47.470;19.166;2023-06-14T14:25:11;4.33;;;2.57;;
75148;SDS011;63724;47.470;19.166;2023-06-14T14:28:14;5.47;;;2.40;;
75148;SDS011;63724;47.470;19.166;2023-06-14T14:31:18;9.55;;;2.53;;
75148;SDS011;63724;47.470;19.166;2023-06-14T14:34:20;3.38;;;2.45;;
75148;SDS011;63724;47.470;19.166;2023-06-14T14:37:23;3.85;;;2.65;;
75148;SDS011;63724;47.470;19.166;2023-06-14T14:40:25;4.27;;;2.13;;
75148;SDS011;63724;47.470;19.166;2023-06-14T14:43:28;5.47;;;2.43;;
75148;SDS011;63724;47.470;19.166;2023-06-14T14:46:33;3.97;;;2.38;;
75148;SDS011;63724;47.470;19.166;2023-06-14T14:49:35;3.17;;;1.90;;
75148;SDS011;63724;47.470;19.166;2023-06-14T14:52:37;3.75;;;2.40;;
75148;SDS011;63724;47.470;19.166;2023-06-14T14:55:40;6.03;;;2.07;;
75148;SDS011;63724;47.470;19.166;2023-06-14T14:58:43;3.13;;;2.10;;
75148;SDS011;63724;47.470;19.166;2023-06-14T15:01:46;5.57;;;2.05;;
75148;SDS011;63724;47.470;19.166;2023-06-14T15:04:48;5.30;;;2.08;;
75148;SDS011;63724;47.470;19.166;2023-06-14T15:07:50;4.07;;;2.20;;
75148;SDS011;63724;47.470;19.166;2023-06-14T15:10:53;5.53;;;2.13;;
75148;SDS011;63724;47.470;19.166;2023-06-14T15:13:55;9.43;;;2.40;;
75148;SDS011;63724;47.470;19.166;2023-06-14T15:16:58;4.10;;;1.95;;
75148;SDS011;63724;47.470;19.166;2023-06-14T15:20:04;3.38;;;2.08;;
75148;SDS011;63724;47.470;19.166;2023-06-14T15:23:08;4.35;;;2.30;;
75148;SDS011;63724;47.470;19.166;2023-06-14T15:26:10;6.53;;;2.43;;
75148;SDS011;63724;47.470;19.166;2023-06-14T15:29:12;3.27;;;2.27;;
75148;SDS011;63724;47.470;19.166;2023-06-14T15:32:15;3.72;;;2.00;;
75148;SDS011;63724;47.470;19.166;2023-06-14T15:35:17;2.83;;;2.33;;
75148;SDS011;63724;47.470;19.166;2023-06-14T15:38:20;4.32;;;2.05;;
75148;SDS011;63724;47.470;19.166;2023-06-14T15:41:24;3.93;;;1.97;;
75148;SDS011;63724;47.470;19.166;2023-06-14T15:44:26;4.47;;;2.30;;
75148;SDS011;63724;47.470;19.166;2023-06-14T15:47:28;2.47;;;2.15;;
75148;SDS011;63724;47.470;19.166;2023-06-14T15:50:31;4.53;;;1.90;;
75148;SDS011;63724;47.470;19.166;2023-06-14T15:53:34;3.65;;;2.35;;
75148;SDS011;63724;47.470;19.166;2023-06-14T15:56:37;5.67;;;2.40;;
75148;SDS011;63724;47.470;19.166;2023-06-14T15:59:40;5.00;;;2.17;;
75148;SDS011;63724;47.470;19.166;2023-06-14T16:02:42;5.68;;;2.00;;
75148;SDS011;63724;47.470;19.166;2023-06-14T16:05:45;5.47;;;2.28;;
75148;SDS011;63724;47.470;19.166;2023-06-14T16:08:47;8.13;;;2.20;;
75148;SDS011;63724;47.470;19.166;2023-06-14T16:11:50;3.87;;;2.00;;
75148;SDS011;63724;47.470;19.166;2023-06-14T16:14:52;5.53;;;2.17;;
75148;SDS011;63724;47.470;19.166;2023-06-14T16:17:56;3.28;;;1.90;;
75148;SDS011;63724;47.470;19.166;2023-06-14T16:20:58;6.05;;;2.67;;
75148;SDS011;63724;47.470;19.166;2023-06-14T16:24:02;4.55;;;1.83;;
75148;SDS011;63724;47.470;19.166;2023-06-14T16:27:05;5.20;;;2.13;;
75148;SDS011;63724;47.470;19.166;2023-06-14T16:30:10;9.90;;;2.50;;
75148;SDS011;63724;47.470;19.166;2023-06-14T16:33:13;4.35;;;2.00;;
75148;SDS011;63724;47.470;19.166;2023-06-14T16:36:15;6.20;;;2.00;;
75148;SDS011;63724;47.470;19.166;2023-06-14T16:39:18;3.58;;;1.83;;
75148;SDS011;63724;47.470;19.166;2023-06-14T16:42:21;5.93;;;1.87;;
75148;SDS011;63724;47.470;19.166;2023-06-14T16:45:23;3.47;;;2.17;;
75148;SDS011;63724;47.470;19.166;2023-06-14T16:48:26;4.57;;;1.73;;
75148;SDS011;63724;47.470;19.166;2023-06-14T16:51:28;3.38;;;2.03;;
75148;SDS011;63724;47.470;19.166;2023-06-14T16:54:30;3.03;;;1.90;;
75148;SDS011;63724;47.470;19.166;2023-06-14T16:57:33;3.53;;;1.83;;
75148;SDS011;63724;47.470;19.166;2023-06-14T17:00:35;2.80;;;2.00;;
75148;SDS011;63724;47.470;19.166;2023-06-14T17:03:38;4.43;;;2.40;;
75148;SDS011;63724;47.470;19.166;2023-06-14T17:06:40;3.35;;;1.80;;
75148;SDS011;63724;47.470;19.166;2023-06-14T17:09:43;4.30;;;2.20;;
75148;SDS011;63724;47.470;19.166;2023-06-14T17:12:45;6.03;;;2.10;;
75148;SDS011;63724;47.470;19.166;2023-06-14T17:15:48;3.53;;;1.80;;
75148;SDS011;63724;47.470;19.166;2023-06-14T17:18:51;5.85;;;2.05;;
75148;SDS011;63724;47.470;19.166;2023-06-14T17:21:53;4.85;;;2.17;;
75148;SDS011;63724;47.470;19.166;2023-06-14T17:24:55;3.85;;;1.83;;
75148;SDS011;63724;47.470;19.166;2023-06-14T17:27:58;6.07;;;2.10;;
75148;SDS011;63724;47.470;19.166;2023-06-14T17:31:01;5.07;;;1.77;;
75148;SDS011;63724;47.470;19.166;2023-06-14T17:34:03;4.13;;;2.00;;
75148;SDS011;63724;47.470;19.166;2023-06-14T17:37:07;6.45;;;1.83;;
75148;SDS011;63724;47.470;19.166;2023-06-14T17:40:10;2.97;;;1.60;;
75148;SDS011;63724;47.470;19.166;2023-06-14T17:43:12;4.13;;;1.97;;
75148;SDS011;63724;47.470;19.166;2023-06-14T17:46:14;3.33;;;2.10;;
75148;SDS011;63724;47.470;19.166;2023-06-14T17:49:17;3.88;;;1.92;;
75148;SDS011;63724;47.470;19.166;2023-06-14T17:52:25;3.88;;;1.73;;
75148;SDS011;63724;47.470;19.166;2023-06-14T17:55:27;4.70;;;2.42;;
75148;SDS011;63724;47.470;19.166;2023-06-14T17:58:30;3.93;;;1.80;;
75148;SDS011;63724;47.470;19.166;2023-06-14T18:01:32;4.70;;;2.17;;
75148;SDS011;63724;47.470;19.166;2023-06-14T18:04:34;6.95;;;2.50;;
75148;SDS011;63724;47.470;19.166;2023-06-14T18:07:37;6.78;;;2.50;;
75148;SDS011;63724;47.470;19.166;2023-06-14T18:10:40;3.38;;;2.30;;
75148;SDS011;63724;47.470;19.166;2023-06-14T18:13:43;3.50;;;2.20;;
75148;SDS011;63724;47.470;19.166;2023-06-14T18:16:46;6.47;;;2.50;;